Historique des mesures à Cassis (13260), France
Quotidien Résumé Mars 13, 2017 Unités:  US    Métrique   Métrique/US
« Précédent (Jour)
Suivant (Jour) »
Quotidien Hebdomadaire Mensuel Annuel Période au choix
  Maximum: Minimum: Moyenne:
Température: 32 °F 51.6 °F 56.1 °F
Point de rosée: 32 °F 41.7 °F 44.8 °F
Humidité: Humidity % 55 % 63 %
Vitesse du vent: WindSpeedKMH mph 0.0 mph 1.9 mph
Rafales: WindSpeedGustKMH mph - -
Vent:- - SE
Pression: 0 in 29.9 in -
Précipitations: 0 in    
Historical Graphs
 
 
Mesures pour : Mars 13, 2017
Heure Temperature Point de rosée Pression Vent Vitesse du vent Rafales Humidité Pluie (par heure) Conditions
32 °F 32 °F 0 in Calm     Humidity % 0 in SoftwareType W/m2
00:11 52.7 °F 46 °F 29.9 in Calm     78 % 0 in open2300-1.11 W/m2
01:10 52.7 °F 46.8 °F 29.9 in North 3.2 mph 3.2 mph 80 % 0 in open2300-1.11 W/m2
02:11 53.4 °F 47.1 °F 29.9 in NNW 2.9 mph 4.3 mph 79 % 0 in open2300-1.11 W/m2
03:10 52.9 °F 46.2 °F 29.9 in NNE 2.1 mph 2.1 mph 78 % 0 in open2300-1.11 W/m2
04:11 52.7 °F 45.7 °F 29.9 in Calm     77 % 0 in open2300-1.11 W/m2
05:10 52.3 °F 44.2 °F 29.9 in NNE 1.4 mph 1.4 mph 74 % 0 in open2300-1.11 W/m2
06:11 52.7 °F 42.1 °F 29.9 in Calm     67 % 0 in open2300-1.11 W/m2
07:10 51.6 °F 41.7 °F 29.9 in Calm   2.6 mph 69 % 0 in open2300-1.11 W/m2
08:11 54.3 °F 42.8 °F 30 in Calm   1.8 mph 65 % 0 in open2300-1.11 W/m2
09:10 57 °F 43.3 °F 30 in Calm     60 % 0 in open2300-1.11 W/m2
10:11 58.8 °F 44.1 °F 30 in Calm   7.9 mph 58 % 0 in open2300-1.11 W/m2
11:10 61.3 °F 45.5 °F 30.1 in Calm   4.0 mph 56 % 0 in open2300-1.11 W/m2
12:11 63 °F 46.9 °F 30.1 in South 4.7 mph 6.1 mph 56 % 0 in open2300-1.11 W/m2
13:10 63.7 °F 47.7 °F 30.1 in SSW 3.5 mph 3.5 mph 56 % 0 in open2300-1.11 W/m2
14:11 63.3 °F 46.8 °F 30.1 in South 4.7 mph 6.1 mph 55 % 0 in open2300-1.11 W/m2
15:10 63.5 °F 46.9 °F 30.1 in SE 5.5 mph 5.5 mph 55 % 0 in open2300-1.11 W/m2
16:11 63.3 °F 47.8 °F 30.1 in SSE 5.0 mph 5.0 mph 57 % 0 in open2300-1.11 W/m2
17:10 62.4 °F 47.5 °F 30.1 in Calm   7.6 mph 58 % 0 in open2300-1.11 W/m2
18:11 60.6 °F 46.2 °F 30.1 in SE 1.8 mph 1.8 mph 59 % 0 in open2300-1.11 W/m2
19:10 57.9 °F 45 °F 30.2 in NW 7.2 mph 7.2 mph 62 % 0 in open2300-1.11 W/m2
20:11 56.1 °F 44.4 °F 30.2 in North 1.4 mph 1.4 mph 65 % 0 in open2300-1.11 W/m2
21:10 55 °F 43.9 °F 30.2 in Calm     66 % 0 in open2300-1.11 W/m2
22:11 54.3 °F 43.5 °F 30.2 in North 2.9 mph 2.9 mph 67 % 0 in open2300-1.11 W/m2
23:10 53.4 °F 43.2 °F 30.2 in Calm   1.4 mph 68 % 0 in open2300-1.11 W/m2
Observations météo à CASSIS
WU-History script by Weather Underground - 1 mb